EGEO

Oban Airport

North Connel, United Kingdom
METAR EGEO 201550Z 27010KT 9999 FEW007 SCT021 BKN038 16/15 Q1011
Observed Flight Rules
Jul-20 @ 15:50 UTC (13 hours ago) Visual Flight Rules
Wind Visibility Clouds
270° at 10 knots 10,000+ meters
  • Few at 700' AGL
  • Scattered at 2,100' AGL
  • Broken at 3,800' AGL
Temperatures Readings
Current 16°C / 61°F
Dewpoint 15°C / 59°F
Humidity 94%
Altimeter 29.85" Hg
Pressure 1011 hPa
Elevation 6
METAR EGEO 201550Z 27010KT 9999 FEW007 SCT021 BKN038 16/15 Q1011
Observed Flight Rules
Jul-20 @ 15:50 UTC
(13 hours ago)
VFR
Wind Visibility
270° at 10 knots 10,000+ meters
Clouds
  • Few at 700' AGL
  • Scattered at 2,100' AGL
  • Broken at 3,800' AGL
Temperature Dewpoint
16°C / 61°F 15°C / 59°F
Humidity Altimeter Pressure
94% 29.85" Hg 1011 hPa